createdAt,value
2022-10-19T00:00:45.665Z,1017.68
2022-10-19T00:01:45.693Z,1017.67
2022-10-19T00:02:45.646Z,1017.70
2022-10-19T00:03:45.695Z,1017.70
2022-10-19T00:04:45.653Z,1017.71
2022-10-19T00:05:45.636Z,1017.70
2022-10-19T00:06:45.617Z,1017.71
2022-10-19T00:07:45.628Z,1017.76
2022-10-19T00:08:45.611Z,1017.79
2022-10-19T00:09:45.618Z,1017.81
2022-10-19T00:10:45.586Z,1017.87
2022-10-19T00:11:45.587Z,1017.86
2022-10-19T00:12:45.652Z,1017.90
2022-10-19T00:13:45.583Z,1017.90
2022-10-19T00:14:45.575Z,1017.92
2022-10-19T00:17:11.545Z,1017.85
2022-10-19T00:18:11.526Z,1017.85
2022-10-19T00:19:11.557Z,1017.87
2022-10-19T00:20:11.507Z,1017.84
2022-10-19T00:21:11.498Z,1017.81
2022-10-19T00:22:13.846Z,1017.78
2022-10-19T00:23:11.487Z,1017.80
2022-10-19T00:24:11.486Z,1017.81
2022-10-19T00:25:11.476Z,1017.81
2022-10-19T00:26:11.468Z,1017.72
2022-10-19T00:27:11.475Z,1017.77
2022-10-19T00:28:11.445Z,1017.71
2022-10-19T00:29:11.541Z,1017.69
2022-10-19T00:30:11.439Z,1017.73
2022-10-19T00:31:11.443Z,1017.79
2022-10-19T00:32:11.424Z,1017.71
2022-10-19T00:33:11.424Z,1017.71
2022-10-19T00:34:11.424Z,1017.67
2022-10-19T00:35:11.404Z,1017.63
2022-10-19T00:36:11.401Z,1017.65
2022-10-19T00:37:11.393Z,1017.63
2022-10-19T00:38:11.393Z,1017.67
2022-10-19T00:39:11.422Z,1017.61
2022-10-19T00:40:11.393Z,1017.63
2022-10-19T00:41:11.374Z,1017.62
2022-10-19T00:42:11.376Z,1017.67
2022-10-19T00:43:11.511Z,1017.59
2022-10-19T00:44:11.341Z,1017.57
2022-10-19T00:45:11.360Z,1017.52
2022-10-19T00:46:11.362Z,1017.63
2022-10-19T00:47:11.332Z,1017.56
2022-10-19T00:48:11.330Z,1017.56
2022-10-19T00:49:11.324Z,1017.57
2022-10-19T00:50:11.321Z,1017.62
2022-10-19T00:51:11.350Z,1017.61
2022-10-19T00:52:11.297Z,1017.60
2022-10-19T00:53:11.288Z,1017.56
2022-10-19T00:54:11.279Z,1017.55
2022-10-19T00:55:11.339Z,1017.56
2022-10-19T00:56:11.272Z,1017.57
2022-10-19T00:57:11.271Z,1017.60
2022-10-19T00:58:11.581Z,1017.58
2022-10-19T00:59:11.260Z,1017.59
2022-10-19T01:00:11.296Z,1017.57
2022-10-19T01:01:11.285Z,1017.57
2022-10-19T01:02:11.227Z,1017.56
2022-10-19T01:03:11.217Z,1017.56
2022-10-19T01:04:11.234Z,1017.56
2022-10-19T01:05:11.227Z,1017.59
2022-10-19T01:06:11.217Z,1017.57
2022-10-19T01:07:11.196Z,1017.55
2022-10-19T01:08:11.189Z,1017.58
2022-10-19T01:09:11.234Z,1017.65
2022-10-19T01:10:11.208Z,1017.58
2022-10-19T01:11:11.174Z,1017.59
2022-10-19T01:12:11.315Z,1017.61
2022-10-19T01:13:11.165Z,1017.57
2022-10-19T01:14:11.894Z,1017.56
2022-10-19T01:15:11.374Z,1017.58
2022-10-19T01:16:11.158Z,1017.62
2022-10-19T01:17:11.904Z,1017.62
2022-10-19T01:18:11.914Z,1017.60
2022-10-19T01:19:11.114Z,1017.58
2022-10-19T01:20:11.134Z,1017.52
2022-10-19T01:21:11.104Z,1017.52
2022-10-19T01:22:11.112Z,1017.51
2022-10-19T01:23:11.093Z,1017.61
2022-10-19T01:24:11.879Z,1017.55
2022-10-19T01:25:11.292Z,1017.57
2022-10-19T01:26:11.362Z,1017.57
2022-10-19T01:27:11.142Z,1017.54
2022-10-19T01:28:11.152Z,1017.52
2022-10-19T01:29:11.124Z,1017.54
2022-10-19T01:30:11.094Z,1017.54
2022-10-19T01:31:11.051Z,1017.55
2022-10-19T01:32:11.042Z,1017.52
2022-10-19T01:33:11.029Z,1017.52
2022-10-19T01:34:11.033Z,1017.56
2022-10-19T01:35:11.028Z,1017.58
2022-10-19T01:36:11.030Z,1017.54
2022-10-19T01:37:10.999Z,1017.59
2022-10-19T01:38:11.014Z,1017.57
2022-10-19T01:39:10.996Z,1017.56
2022-10-19T01:40:11.017Z,1017.62
2022-10-19T01:41:10.989Z,1017.58
2022-10-19T01:42:11.139Z,1017.61
2022-10-19T01:43:10.960Z,1017.63
2022-10-19T01:44:11.060Z,1017.66
2022-10-19T01:45:10.967Z,1017.67
2022-10-19T01:46:10.968Z,1017.70
2022-10-19T01:47:10.937Z,1017.64
2022-10-19T01:48:10.947Z,1017.65
2022-10-19T01:49:10.930Z,1017.63
2022-10-19T01:50:10.935Z,1017.55
2022-10-19T01:51:10.925Z,1017.58
2022-10-19T01:52:10.947Z,1017.58
2022-10-19T01:53:10.923Z,1017.53
2022-10-19T01:54:10.896Z,1017.57
2022-10-19T01:55:10.884Z,1017.50
2022-10-19T01:56:10.905Z,1017.54
2022-10-19T01:57:10.868Z,1017.54
2022-10-19T01:58:10.864Z,1017.50
2022-10-19T01:59:10.856Z,1017.49
2022-10-19T02:00:10.866Z,1017.46
2022-10-19T02:02:10.860Z,1017.40
2022-10-19T02:03:10.824Z,1017.37
2022-10-19T02:04:10.823Z,1017.42
2022-10-19T02:05:10.844Z,1017.42
2022-10-19T02:06:10.841Z,1017.42
2022-10-19T02:07:10.811Z,1017.40
2022-10-19T02:08:10.803Z,1017.33
2022-10-19T02:09:10.792Z,1017.29
2022-10-19T02:10:10.824Z,1017.36
2022-10-19T02:11:10.832Z,1017.32
2022-10-19T02:12:10.771Z,1017.33
2022-10-19T02:13:10.768Z,1017.37
2022-10-19T02:14:10.768Z,1017.28
2022-10-19T02:15:10.764Z,1017.32
2022-10-19T02:16:10.780Z,1017.34
2022-10-19T02:17:10.741Z,1017.33
2022-10-19T02:18:10.740Z,1017.37
2022-10-19T02:19:10.812Z,1017.38
2022-10-19T02:20:10.732Z,1017.38
2022-10-19T02:21:10.741Z,1017.35
2022-10-19T02:22:11.297Z,1017.36
2022-10-19T02:23:10.710Z,1017.38
2022-10-19T02:24:11.308Z,1017.34
2022-10-19T02:25:11.309Z,1017.38
2022-10-19T02:26:11.142Z,1017.32
2022-10-19T02:27:10.701Z,1017.40
2022-10-19T02:28:10.667Z,1017.38
2022-10-19T02:29:10.785Z,1017.35
2022-10-19T02:30:11.007Z,1017.39
2022-10-19T02:31:10.686Z,1017.36
2022-10-19T02:32:10.982Z,1017.36
2022-10-19T02:33:10.626Z,1017.35
2022-10-19T02:34:10.645Z,1017.33
2022-10-19T02:35:10.617Z,1017.38
2022-10-19T02:36:10.662Z,1017.29
2022-10-19T02:37:10.625Z,1017.29
2022-10-19T02:38:10.606Z,1017.29
2022-10-19T02:39:10.595Z,1017.36
2022-10-19T02:40:10.609Z,1017.32
2022-10-19T02:41:10.584Z,1017.27
2022-10-19T02:42:10.844Z,1017.27
2022-10-19T02:43:10.611Z,1017.30
2022-10-19T02:44:10.641Z,1017.31
2022-10-19T02:45:10.624Z,1017.36
2022-10-19T02:46:10.635Z,1017.39
2022-10-19T02:47:10.633Z,1017.40
2022-10-19T02:48:10.653Z,1017.38
2022-10-19T02:49:10.722Z,1017.39
2022-10-19T02:50:10.552Z,1017.37
2022-10-19T02:51:10.523Z,1017.47
2022-10-19T02:52:10.872Z,1017.37
2022-10-19T02:53:10.503Z,1017.39
2022-10-19T02:54:10.503Z,1017.42
2022-10-19T02:55:10.490Z,1017.41
2022-10-19T02:56:10.501Z,1017.37
2022-10-19T02:57:10.501Z,1017.40
2022-10-19T02:58:10.481Z,1017.43
2022-10-19T02:59:10.460Z,1017.37
2022-10-19T03:00:11.209Z,1017.44
2022-10-19T03:01:11.416Z,1017.42
2022-10-19T03:02:10.480Z,1017.42
2022-10-19T03:03:10.446Z,1017.42
2022-10-19T03:04:10.871Z,1017.43
2022-10-19T03:05:10.421Z,1017.48
2022-10-19T03:06:10.449Z,1017.47
2022-10-19T03:07:11.359Z,1017.44
2022-10-19T03:08:10.411Z,1017.45
2022-10-19T03:09:11.415Z,1017.39
2022-10-19T03:10:11.317Z,1017.47
2022-10-19T03:11:10.388Z,1017.45
2022-10-19T03:12:10.417Z,1017.46
2022-10-19T03:13:11.288Z,1017.52
2022-10-19T03:14:10.419Z,1017.47
2022-10-19T03:15:11.136Z,1017.53
2022-10-19T03:16:11.127Z,1017.50
2022-10-19T03:17:10.376Z,1017.49
2022-10-19T03:18:11.318Z,1017.46
2022-10-19T03:19:11.225Z,1017.45
2022-10-19T03:20:11.384Z,1017.47
2022-10-19T03:21:10.328Z,1017.46
2022-10-19T03:22:10.335Z,1017.40
2022-10-19T03:23:10.335Z,1017.39
2022-10-19T03:24:10.296Z,1017.39
2022-10-19T03:25:10.356Z,1017.36
2022-10-19T03:26:12.256Z,1017.39
2022-10-19T03:27:10.315Z,1017.37
2022-10-19T03:28:10.274Z,1017.34
2022-10-19T03:29:10.284Z,1017.38
2022-10-19T03:30:10.272Z,1017.33
2022-10-19T03:31:10.713Z,1017.38
2022-10-19T03:32:10.732Z,1017.31
2022-10-19T03:33:10.724Z,1017.27
2022-10-19T03:34:10.849Z,1017.33
2022-10-19T03:35:10.262Z,1017.33
2022-10-19T03:36:10.231Z,1017.35
2022-10-19T03:37:10.248Z,1017.34
2022-10-19T03:38:10.252Z,1017.31
2022-10-19T03:39:10.262Z,1017.31
2022-10-19T03:40:10.193Z,1017.37
2022-10-19T03:41:10.192Z,1017.32
2022-10-19T03:42:10.365Z,1017.31
2022-10-19T03:43:10.210Z,1017.32
2022-10-19T03:44:10.216Z,1017.32
2022-10-19T03:45:10.503Z,1017.29
2022-10-19T03:46:10.554Z,1017.30
2022-10-19T03:47:10.180Z,1017.27
2022-10-19T03:48:10.150Z,1017.21
2022-10-19T03:49:10.140Z,1017.20
2022-10-19T03:50:10.130Z,1017.24
2022-10-19T03:51:10.141Z,1017.21
2022-10-19T03:52:10.228Z,1017.17
2022-10-19T03:53:10.123Z,1017.20
2022-10-19T03:54:10.869Z,1017.21
2022-10-19T03:55:10.109Z,1017.22
2022-10-19T03:56:11.194Z,1017.18
2022-10-19T03:57:10.129Z,1017.23
2022-10-19T03:58:11.045Z,1017.28
2022-10-19T03:59:10.968Z,1017.21
2022-10-19T04:00:10.179Z,1017.28
2022-10-19T04:01:10.129Z,1017.17
2022-10-19T04:02:10.095Z,1017.24
2022-10-19T04:03:10.146Z,1017.29
2022-10-19T04:04:10.047Z,1017.24
2022-10-19T04:05:10.275Z,1017.29
2022-10-19T04:06:10.025Z,1017.36
2022-10-19T04:07:10.096Z,1017.34
2022-10-19T04:08:10.018Z,1017.33
2022-10-19T04:09:10.024Z,1017.37
2022-10-19T04:10:10.005Z,1017.34
2022-10-19T04:11:10.016Z,1017.36
2022-10-19T04:12:09.995Z,1017.32
2022-10-19T04:13:10.229Z,1017.39
2022-10-19T04:14:10.686Z,1017.40
2022-10-19T04:15:10.735Z,1017.41
2022-10-19T04:16:10.775Z,1017.44
2022-10-19T04:17:10.822Z,1017.46
2022-10-19T04:18:10.912Z,1017.41
2022-10-19T04:19:10.643Z,1017.42
2022-10-19T04:20:09.932Z,1017.40
2022-10-19T04:21:11.011Z,1017.37
2022-10-19T04:22:10.810Z,1017.41
2022-10-19T04:23:11.023Z,1017.40
2022-10-19T04:24:10.874Z,1017.37
2022-10-19T04:25:10.771Z,1017.43
2022-10-19T04:26:09.911Z,1017.37
2022-10-19T04:27:11.390Z,1017.44
2022-10-19T04:28:10.459Z,1017.42
2022-10-19T04:29:10.953Z,1017.40
2022-10-19T04:30:09.880Z,1017.49
2022-10-19T04:31:09.898Z,1017.43
2022-10-19T04:32:09.864Z,1017.44
2022-10-19T04:33:11.009Z,1017.48
2022-10-19T04:34:09.849Z,1017.43
2022-10-19T04:35:09.849Z,1017.45
2022-10-19T04:36:09.829Z,1017.45
2022-10-19T04:37:09.827Z,1017.44
2022-10-19T04:38:09.959Z,1017.43
2022-10-19T04:39:09.823Z,1017.52
2022-10-19T04:40:14.218Z,1017.54
2022-10-19T04:41:09.799Z,1017.53
2022-10-19T04:42:09.797Z,1017.48
2022-10-19T04:43:09.954Z,1017.50
2022-10-19T04:44:09.810Z,1017.52
2022-10-19T04:45:09.966Z,1017.51
2022-10-19T04:46:09.815Z,1017.46
2022-10-19T04:47:09.770Z,1017.50
2022-10-19T04:48:09.782Z,1017.48
2022-10-19T04:49:10.017Z,1017.47
2022-10-19T04:50:09.745Z,1017.45
2022-10-19T04:51:09.735Z,1017.42
2022-10-19T04:52:09.724Z,1017.41
2022-10-19T04:53:09.978Z,1017.44
2022-10-19T04:54:09.716Z,1017.39
2022-10-19T04:55:09.715Z,1017.38
2022-10-19T04:56:09.695Z,1017.37
2022-10-19T04:57:09.703Z,1017.41
2022-10-19T04:58:09.703Z,1017.39
2022-10-19T04:59:09.688Z,1017.33
2022-10-19T05:00:09.673Z,1017.34
2022-10-19T05:01:09.702Z,1017.34
2022-10-19T05:02:09.672Z,1017.33
2022-10-19T05:03:09.693Z,1017.29
2022-10-19T05:04:09.642Z,1017.26
2022-10-19T05:05:09.655Z,1017.26
2022-10-19T05:06:09.631Z,1017.27
2022-10-19T05:07:09.640Z,1017.31
2022-10-19T05:08:09.730Z,1017.29
2022-10-19T05:09:09.626Z,1017.32
2022-10-19T05:10:09.623Z,1017.30
2022-10-19T05:11:09.621Z,1017.30
2022-10-19T05:12:09.614Z,1017.36
2022-10-19T05:13:09.611Z,1017.35
2022-10-19T05:14:09.590Z,1017.38
2022-10-19T05:15:09.578Z,1017.30
2022-10-19T05:16:09.580Z,1017.32
2022-10-19T05:17:09.557Z,1017.28
2022-10-19T05:18:09.592Z,1017.21
2022-10-19T05:19:09.558Z,1017.27
2022-10-19T05:20:09.859Z,1017.27
2022-10-19T05:21:09.915Z,1017.26
2022-10-19T05:22:09.626Z,1017.19
2022-10-19T05:23:09.537Z,1017.23
2022-10-19T05:24:09.549Z,1017.20
2022-10-19T05:25:09.517Z,1017.15
2022-10-19T05:26:09.944Z,1017.14
2022-10-19T05:27:09.503Z,1017.20
2022-10-19T05:28:09.528Z,1017.18
2022-10-19T05:29:09.522Z,1017.19
2022-10-19T05:30:09.486Z,1017.15
2022-10-19T05:31:09.510Z,1017.16
2022-10-19T05:32:09.473Z,1017.19
2022-10-19T05:33:09.455Z,1017.11
2022-10-19T05:34:09.597Z,1017.14
2022-10-19T05:35:09.595Z,1017.20
2022-10-19T05:36:09.458Z,1017.12
2022-10-19T05:37:09.437Z,1017.20
2022-10-19T05:38:09.455Z,1017.09
2022-10-19T05:39:09.453Z,1017.14
2022-10-19T05:40:09.437Z,1017.17
2022-10-19T05:41:09.420Z,1017.17
2022-10-19T05:42:09.433Z,1017.18
2022-10-19T05:43:09.443Z,1017.22
2022-10-19T05:44:09.415Z,1017.17
2022-10-19T05:45:09.393Z,1017.22
2022-10-19T05:46:09.467Z,1017.19
2022-10-19T05:47:09.371Z,1017.20
2022-10-19T05:48:09.382Z,1017.16
2022-10-19T05:49:09.373Z,1017.19
2022-10-19T05:50:09.400Z,1017.20
2022-10-19T05:51:09.369Z,1017.16
2022-10-19T05:52:09.511Z,1017.21
2022-10-19T05:53:09.581Z,1017.18
2022-10-19T05:54:09.597Z,1017.18
2022-10-19T05:55:09.361Z,1017.14
2022-10-19T05:56:09.339Z,1017.16
2022-10-19T05:57:09.338Z,1017.19
2022-10-19T05:58:09.349Z,1017.18
2022-10-19T05:59:09.340Z,1017.22
2022-10-19T06:00:09.342Z,1017.19
2022-10-19T06:01:09.357Z,1017.16
2022-10-19T06:02:09.412Z,1017.21
2022-10-19T06:03:09.380Z,1017.21
2022-10-19T06:04:09.477Z,1017.27
2022-10-19T06:05:10.254Z,1017.25
2022-10-19T06:06:09.278Z,1017.23
2022-10-19T06:07:09.266Z,1017.12
2022-10-19T06:08:09.266Z,1017.21
2022-10-19T06:09:09.277Z,1017.18
2022-10-19T06:10:09.463Z,1017.21
2022-10-19T06:11:09.227Z,1017.17
2022-10-19T06:12:09.246Z,1017.16
2022-10-19T06:13:09.199Z,1017.21
2022-10-19T06:14:09.255Z,1017.21
2022-10-19T06:15:09.215Z,1017.25
2022-10-19T06:16:09.213Z,1017.25
2022-10-19T06:17:10.184Z,1017.23
2022-10-19T06:18:09.176Z,1017.23
2022-10-19T06:19:09.235Z,1017.23
2022-10-19T06:20:09.292Z,1017.21
2022-10-19T06:21:09.144Z,1017.23
2022-10-19T06:22:09.154Z,1017.24
2022-10-19T06:23:09.319Z,1017.16
2022-10-19T06:24:09.313Z,1017.11
2022-10-19T06:25:09.163Z,1017.14
2022-10-19T06:26:09.163Z,1017.12
2022-10-19T06:27:09.167Z,1017.13
2022-10-19T06:28:09.151Z,1017.13
2022-10-19T06:29:09.153Z,1017.10
2022-10-19T06:30:09.153Z,1017.15
2022-10-19T06:31:09.573Z,1017.13
2022-10-19T06:32:09.262Z,1017.22
2022-10-19T06:33:09.165Z,1017.15
2022-10-19T06:34:09.250Z,1017.18
2022-10-19T06:35:09.406Z,1017.20
2022-10-19T06:36:09.251Z,1017.20
2022-10-19T06:37:09.069Z,1017.22
2022-10-19T06:38:09.460Z,1017.22
2022-10-19T06:39:09.619Z,1017.17
2022-10-19T06:40:09.063Z,1017.25
2022-10-19T06:41:09.018Z,1017.28
2022-10-19T06:42:09.428Z,1017.31
2022-10-19T06:43:09.649Z,1017.30
2022-10-19T06:44:09.659Z,1017.35
2022-10-19T06:45:08.988Z,1017.29
2022-10-19T06:46:09.465Z,1017.41
2022-10-19T06:47:09.667Z,1017.36
2022-10-19T06:48:09.677Z,1017.35
2022-10-19T06:49:09.686Z,1017.39
2022-10-19T06:50:08.996Z,1017.37
2022-10-19T06:51:08.970Z,1017.37
2022-10-19T06:52:09.035Z,1017.33
2022-10-19T06:53:09.715Z,1017.34
2022-10-19T06:54:09.106Z,1017.35
2022-10-19T06:55:09.567Z,1017.38
2022-10-19T06:56:08.936Z,1017.33
2022-10-19T06:57:09.126Z,1017.36
2022-10-19T06:58:09.176Z,1017.36
2022-10-19T06:59:09.545Z,1017.40
2022-10-19T07:00:09.355Z,1017.40
2022-10-19T07:01:09.060Z,1017.36
2022-10-19T07:02:08.953Z,1017.41
2022-10-19T07:03:08.962Z,1017.40
2022-10-19T07:04:08.973Z,1017.40
2022-10-19T07:05:09.014Z,1017.42
2022-10-19T07:06:09.134Z,1017.42
2022-10-19T07:07:09.193Z,1017.45
2022-10-19T07:08:08.913Z,1017.44
2022-10-19T07:09:09.214Z,1017.36
2022-10-19T07:10:09.232Z,1017.42
2022-10-19T07:11:09.438Z,1017.39
2022-10-19T07:12:09.442Z,1017.41
2022-10-19T07:14:09.450Z,1017.43
2022-10-19T07:15:09.241Z,1017.42
2022-10-19T07:16:09.520Z,1017.43
2022-10-19T07:17:09.301Z,1017.41
2022-10-19T07:18:09.511Z,1017.42
2022-10-19T07:19:09.479Z,1017.40
2022-10-19T07:20:08.881Z,1017.44
2022-10-19T07:21:08.879Z,1017.48
2022-10-19T07:22:09.661Z,1017.49
2022-10-19T07:23:08.970Z,1017.46
2022-10-19T07:24:08.908Z,1017.48
2022-10-19T07:25:08.757Z,1017.44
2022-10-19T07:26:08.937Z,1017.40
2022-10-19T07:27:08.939Z,1017.40
2022-10-19T07:28:08.954Z,1017.40
2022-10-19T07:29:08.964Z,1017.40
2022-10-19T07:30:09.169Z,1017.32
2022-10-19T07:31:08.951Z,1017.32
2022-10-19T07:32:09.267Z,1017.37
2022-10-19T07:33:09.251Z,1017.30
2022-10-19T07:34:09.196Z,1017.34
2022-10-19T07:35:08.708Z,1017.28
2022-10-19T07:36:09.197Z,1017.30
2022-10-19T07:37:09.422Z,1017.27
2022-10-19T07:38:09.427Z,1017.22
2022-10-19T07:39:08.703Z,1017.26
2022-10-19T07:40:08.668Z,1017.25
2022-10-19T07:41:08.654Z,1017.30
2022-10-19T07:42:08.871Z,1017.29
2022-10-19T07:43:08.826Z,1017.25
2022-10-19T07:44:10.925Z,1017.25
2022-10-19T07:45:08.844Z,1017.30
2022-10-19T07:46:09.067Z,1017.31
2022-10-19T07:47:08.904Z,1017.30
2022-10-19T07:48:09.074Z,1017.26
2022-10-19T07:49:08.694Z,1017.32
2022-10-19T07:50:08.693Z,1017.32
2022-10-19T07:51:08.734Z,1017.37
2022-10-19T07:52:08.722Z,1017.31
2022-10-19T07:53:08.724Z,1017.27
2022-10-19T07:54:08.933Z,1017.29
2022-10-19T07:55:08.739Z,1017.32
2022-10-19T07:56:08.622Z,1017.30
2022-10-19T07:57:08.922Z,1017.32
2022-10-19T07:58:08.563Z,1017.18
2022-10-19T07:59:08.741Z,1017.22
2022-10-19T08:00:08.741Z,1017.21
2022-10-19T08:01:08.999Z,1017.21
2022-10-19T08:02:08.531Z,1017.15
2022-10-19T08:05:11.613Z,1017.13
2022-10-19T08:06:08.489Z,1017.13
2022-10-19T08:07:08.869Z,1017.16
2022-10-19T08:08:09.344Z,1017.18
2022-10-19T08:09:08.889Z,1017.15
2022-10-19T08:10:08.799Z,1017.17
2022-10-19T08:11:09.298Z,1017.15
2022-10-19T08:12:13.831Z,1017.19
2022-10-19T08:13:09.228Z,1017.20
2022-10-19T08:14:08.460Z,1017.19
2022-10-19T08:15:08.448Z,1017.25
2022-10-19T08:16:08.446Z,1017.23
2022-10-19T08:17:08.507Z,1017.17
2022-10-19T08:18:08.466Z,1017.22
2022-10-19T08:19:08.417Z,1017.17
2022-10-19T08:20:08.468Z,1017.23
2022-10-19T08:21:08.477Z,1017.21
2022-10-19T08:22:08.487Z,1017.23
2022-10-19T08:23:08.516Z,1017.26
2022-10-19T08:24:08.555Z,1017.29
2022-10-19T08:25:08.717Z,1017.33
2022-10-19T08:26:08.728Z,1017.29
2022-10-19T08:27:08.792Z,1017.26
2022-10-19T08:28:08.747Z,1017.23
2022-10-19T08:29:08.745Z,1017.23
2022-10-19T08:30:08.336Z,1017.21
2022-10-19T08:31:08.532Z,1017.17
2022-10-19T08:32:08.303Z,1017.22
2022-10-19T08:33:08.986Z,1017.18
2022-10-19T08:34:08.344Z,1017.14
2022-10-19T08:35:10.894Z,1017.20
2022-10-19T08:36:08.274Z,1017.19
2022-10-19T08:37:19.772Z,1017.12
2022-10-19T08:38:08.394Z,1017.16
2022-10-19T08:39:09.213Z,1017.16
2022-10-19T08:40:09.084Z,1017.11
2022-10-19T08:41:08.603Z,1017.13
2022-10-19T08:42:08.262Z,1017.07
2022-10-19T08:43:09.042Z,1017.05
2022-10-19T08:44:10.167Z,1017.00
2022-10-19T08:45:08.222Z,1016.97
2022-10-19T08:46:08.277Z,1017.00
2022-10-19T08:47:09.324Z,1016.97
2022-10-19T08:48:08.262Z,1017.01
2022-10-19T08:49:08.242Z,1017.00
2022-10-19T08:50:08.201Z,1016.97
2022-10-19T08:51:08.262Z,1016.95
2022-10-19T08:52:09.093Z,1016.89
2022-10-19T08:53:08.693Z,1016.89
2022-10-19T08:54:08.299Z,1016.88
2022-10-19T08:55:08.159Z,1016.88
2022-10-19T08:56:08.310Z,1016.85
2022-10-19T08:57:08.321Z,1016.89
2022-10-19T08:58:08.319Z,1016.82
2022-10-19T08:59:08.319Z,1016.86
2022-10-19T09:00:08.320Z,1016.88
2022-10-19T09:01:08.332Z,1016.93
2022-10-19T09:02:08.130Z,1016.97
2022-10-19T09:03:08.129Z,1016.99
2022-10-19T09:04:08.352Z,1017.00
2022-10-19T09:05:08.069Z,1016.91
2022-10-19T09:06:08.169Z,1016.97
2022-10-19T09:07:08.369Z,1016.91
2022-10-19T09:08:08.179Z,1016.94
2022-10-19T09:09:08.286Z,1017.01
2022-10-19T09:10:08.188Z,1016.90
2022-10-19T09:11:08.068Z,1016.96
2022-10-19T09:12:08.200Z,1016.94
2022-10-19T09:13:08.044Z,1016.94
2022-10-19T09:14:08.214Z,1016.94
2022-10-19T09:15:08.056Z,1017.01
2022-10-19T09:16:08.027Z,1017.01
2022-10-19T09:17:08.067Z,1017.01
2022-10-19T09:18:08.247Z,1016.97
2022-10-19T09:19:08.067Z,1016.94
2022-10-19T09:20:08.056Z,1016.98
2022-10-19T09:21:08.037Z,1016.99
2022-10-19T09:22:08.288Z,1016.99
2022-10-19T09:23:13.017Z,1016.99
2022-10-19T09:24:08.276Z,1017.01
2022-10-19T09:25:08.276Z,1017.02
2022-10-19T09:26:07.945Z,1017.07
2022-10-19T09:27:08.293Z,1016.96
2022-10-19T09:28:07.927Z,1016.99
2022-10-19T09:29:07.937Z,1016.92
2022-10-19T09:30:07.917Z,1016.90
2022-10-19T09:31:07.956Z,1016.97
2022-10-19T09:32:07.915Z,1016.94
2022-10-19T09:33:09.103Z,1016.92
2022-10-19T09:34:07.937Z,1016.92
2022-10-19T09:35:07.934Z,1016.95
2022-10-19T09:36:08.145Z,1016.94
2022-10-19T09:37:07.889Z,1016.95
2022-10-19T09:38:08.277Z,1016.88
2022-10-19T09:39:08.426Z,1016.85
2022-10-19T09:40:07.853Z,1016.85
2022-10-19T09:41:08.175Z,1016.87
2022-10-19T09:42:08.502Z,1016.89
2022-10-19T09:43:07.822Z,1016.85
2022-10-19T09:44:08.414Z,1016.80
2022-10-19T09:45:07.994Z,1016.86
2022-10-19T09:46:16.479Z,1016.84
2022-10-19T09:47:11.525Z,1016.78
2022-10-19T09:48:12.831Z,1016.78
2022-10-19T09:49:08.434Z,1016.72
2022-10-19T09:50:07.867Z,1016.77
2022-10-19T09:51:08.644Z,1016.77
2022-10-19T09:52:07.763Z,1016.79
2022-10-19T09:53:08.250Z,1016.82
2022-10-19T09:54:08.274Z,1016.77
2022-10-19T09:55:08.674Z,1016.74
2022-10-19T09:56:07.852Z,1016.78
2022-10-19T09:57:08.271Z,1016.76
2022-10-19T09:58:08.279Z,1016.73
2022-10-19T09:59:07.879Z,1016.71
2022-10-19T10:00:08.562Z,1016.73
2022-10-19T10:01:08.317Z,1016.71
2022-10-19T10:02:07.717Z,1016.68
2022-10-19T10:03:07.903Z,1016.67
2022-10-19T10:04:07.712Z,1016.63
2022-10-19T10:05:08.150Z,1016.61
2022-10-19T10:06:07.711Z,1016.61
2022-10-19T10:07:07.726Z,1016.60
2022-10-19T10:08:07.653Z,1016.57
2022-10-19T10:09:07.748Z,1016.62
2022-10-19T10:10:07.672Z,1016.60
2022-10-19T10:11:07.814Z,1016.63
2022-10-19T10:12:07.660Z,1016.57
2022-10-19T10:13:07.713Z,1016.60
2022-10-19T10:14:09.957Z,1016.59
2022-10-19T10:15:07.638Z,1016.60
2022-10-19T10:16:07.629Z,1016.63
2022-10-19T10:17:07.630Z,1016.60
2022-10-19T10:18:07.599Z,1016.56
2022-10-19T10:19:07.619Z,1016.43
2022-10-19T10:20:07.617Z,1016.48
2022-10-19T10:21:07.641Z,1016.50
2022-10-19T10:22:07.648Z,1016.50
2022-10-19T10:23:07.668Z,1016.51
2022-10-19T10:24:07.667Z,1016.47
2022-10-19T10:25:07.687Z,1016.46
2022-10-19T10:26:07.638Z,1016.49
2022-10-19T10:27:07.546Z,1016.41
2022-10-19T10:28:07.728Z,1016.39
2022-10-19T10:29:07.737Z,1016.36
2022-10-19T10:30:07.518Z,1016.31
2022-10-19T10:31:07.521Z,1016.32
2022-10-19T10:32:07.506Z,1016.26
2022-10-19T10:33:15.916Z,1016.27
2022-10-19T10:34:17.847Z,1016.23
2022-10-19T10:35:07.547Z,1016.22
2022-10-19T10:36:07.746Z,1016.24
2022-10-19T10:37:07.824Z,1016.17
2022-10-19T10:38:07.718Z,1016.17
2022-10-19T10:39:07.804Z,1016.19
2022-10-19T10:40:08.405Z,1016.11
2022-10-19T10:41:07.652Z,1016.18
2022-10-19T10:42:07.757Z,1016.16
2022-10-19T10:43:07.777Z,1016.15
2022-10-19T10:44:07.465Z,1016.12
2022-10-19T10:45:07.556Z,1016.10
2022-10-19T10:46:07.572Z,1016.10
2022-10-19T10:47:07.578Z,1016.20
2022-10-19T10:49:07.593Z,1016.09
2022-10-19T10:50:07.616Z,1016.07
2022-10-19T10:51:07.815Z,1016.10
2022-10-19T10:52:07.824Z,1016.09
2022-10-19T10:53:07.852Z,1016.11
2022-10-19T10:54:07.386Z,1016.08
2022-10-19T10:55:07.614Z,1016.07
2022-10-19T10:56:07.505Z,1016.04
2022-10-19T10:57:07.935Z,1016.02
2022-10-19T10:58:07.475Z,1016.05
2022-10-19T10:59:07.873Z,1016.02
2022-10-19T11:00:07.606Z,1016.05
2022-10-19T11:01:07.874Z,1016.03
2022-10-19T11:02:07.405Z,1016.00
2022-10-19T11:03:07.916Z,1016.01
2022-10-19T11:04:07.672Z,1015.93
2022-10-19T11:05:07.304Z,1015.89
2022-10-19T11:06:07.315Z,1015.93
2022-10-19T11:07:07.329Z,1015.93
2022-10-19T11:08:07.522Z,1015.90
2022-10-19T11:09:07.650Z,1015.86
2022-10-19T11:10:07.542Z,1015.86
2022-10-19T11:11:07.333Z,1015.88
2022-10-19T11:12:07.323Z,1015.83
2022-10-19T11:13:07.531Z,1015.87
2022-10-19T11:14:07.771Z,1015.82
2022-10-19T11:15:07.772Z,1015.80
2022-10-19T11:16:07.801Z,1015.74
2022-10-19T11:17:07.262Z,1015.74
2022-10-19T11:18:07.251Z,1015.74
2022-10-19T11:19:07.245Z,1015.72
2022-10-19T11:20:07.193Z,1015.77
2022-10-19T11:21:07.180Z,1015.69
2022-10-19T11:22:07.179Z,1015.65
2022-10-19T11:23:07.234Z,1015.65
2022-10-19T11:24:07.211Z,1015.55
2022-10-19T11:25:07.252Z,1015.51
2022-10-19T11:26:07.520Z,1015.50
2022-10-19T11:27:07.420Z,1015.43
2022-10-19T11:28:07.468Z,1015.45
2022-10-19T11:29:07.242Z,1015.42
2022-10-19T11:30:07.631Z,1015.44
2022-10-19T11:31:07.651Z,1015.45
2022-10-19T11:32:07.100Z,1015.41
2022-10-19T11:33:07.451Z,1015.39
2022-10-19T11:34:07.103Z,1015.38
2022-10-19T11:35:07.670Z,1015.39
2022-10-19T11:36:07.913Z,1015.32
2022-10-19T11:37:07.479Z,1015.30
2022-10-19T11:38:19.431Z,1015.39
2022-10-19T11:39:07.492Z,1015.39
2022-10-19T11:40:07.194Z,1015.34
2022-10-19T11:41:23.364Z,1015.40
2022-10-19T11:42:07.151Z,1015.37
2022-10-19T11:43:07.569Z,1015.31
2022-10-19T11:44:08.068Z,1015.29
2022-10-19T11:45:07.144Z,1015.26
2022-10-19T11:46:07.178Z,1015.13
2022-10-19T11:47:07.001Z,1015.20
2022-10-19T11:48:06.998Z,1015.17
2022-10-19T11:49:07.441Z,1015.15
2022-10-19T11:50:07.027Z,1015.09
2022-10-19T11:51:17.465Z,1015.16
2022-10-19T11:52:07.208Z,1015.09
2022-10-19T11:53:07.579Z,1015.04
2022-10-19T11:54:08.995Z,1015.07
2022-10-19T11:55:06.982Z,1015.15
2022-10-19T11:56:07.799Z,1015.14
2022-10-19T11:57:11.427Z,1015.05
2022-10-19T11:58:07.009Z,1015.10
2022-10-19T11:59:07.052Z,1015.10
2022-10-19T12:00:14.381Z,1015.04
2022-10-19T12:01:06.940Z,1014.97
2022-10-19T12:02:07.140Z,1014.99
2022-10-19T12:03:06.947Z,1014.93
2022-10-19T12:04:07.259Z,1014.94
2022-10-19T12:05:07.267Z,1014.94
2022-10-19T12:06:07.047Z,1014.89
2022-10-19T12:07:06.867Z,1014.96
2022-10-19T12:08:07.306Z,1014.93
2022-10-19T12:09:07.519Z,1014.88
2022-10-19T12:10:07.276Z,1014.86
2022-10-19T12:11:07.076Z,1014.84
2022-10-19T12:12:07.382Z,1014.89